createdAt,value
2018-06-24T00:00:49.246Z,15.02
2018-06-24T00:01:49.236Z,14.99
2018-06-24T00:02:48.980Z,14.97
2018-06-24T00:03:49.242Z,14.99
2018-06-24T00:04:48.991Z,14.97
2018-06-24T00:05:48.996Z,15
2018-06-24T00:06:48.980Z,14.99
2018-06-24T00:07:48.965Z,15
2018-06-24T00:08:48.984Z,14.97
2018-06-24T00:09:49.227Z,14.97
2018-06-24T00:10:48.984Z,14.99
2018-06-24T00:11:48.989Z,14.86
2018-06-24T00:12:49.236Z,14.92
2018-06-24T00:13:49.576Z,14.88
2018-06-24T00:14:48.705Z,14.91
2018-06-24T00:15:48.981Z,14.92
2018-06-24T00:16:49.217Z,14.92
2018-06-24T00:17:49.228Z,14.89
2018-06-24T00:18:49.212Z,14.78
2018-06-24T00:19:48.956Z,14.86
2018-06-24T00:20:49.206Z,14.86
2018-06-24T00:21:48.709Z,14.79
2018-06-24T00:22:49.195Z,14.7
2018-06-24T00:23:49.237Z,14.66
2018-06-24T00:24:48.968Z,14.66
2018-06-24T00:25:48.955Z,14.66
2018-06-24T00:26:48.945Z,14.6
2018-06-24T00:27:49.194Z,14.69
2018-06-24T00:28:49.206Z,14.59
2018-06-24T00:29:49.211Z,14.6
2018-06-24T00:30:48.942Z,14.63
2018-06-24T00:31:48.937Z,14.54
2018-06-24T00:32:48.951Z,14.54
2018-06-24T00:33:48.950Z,14.59
2018-06-24T00:34:48.947Z,14.55
2018-06-24T00:35:48.756Z,14.62
2018-06-24T00:36:48.685Z,14.63
2018-06-24T00:37:48.950Z,14.54
2018-06-24T00:38:48.696Z,14.6
2018-06-24T00:39:48.935Z,14.58
2018-06-24T00:40:48.936Z,14.53
2018-06-24T00:41:48.943Z,14.58
2018-06-24T00:42:49.182Z,14.58
2018-06-24T00:43:48.954Z,14.6
2018-06-24T00:44:49.179Z,14.58
2018-06-24T00:45:49.176Z,14.54
2018-06-24T00:46:48.670Z,14.55
2018-06-24T00:47:49.182Z,14.6
2018-06-24T00:48:49.164Z,14.55
2018-06-24T00:49:49.162Z,14.55
2018-06-24T00:50:48.916Z,14.63
2018-06-24T00:51:48.655Z,14.63
2018-06-24T00:52:48.921Z,14.6
2018-06-24T00:53:49.163Z,14.62
2018-06-24T00:54:49.167Z,14.58
2018-06-24T00:55:48.908Z,14.58
2018-06-24T00:56:49.160Z,14.53
2018-06-24T00:57:49.157Z,14.44
2018-06-24T00:58:48.904Z,14.5
2018-06-24T00:59:48.920Z,14.47
2018-06-24T01:00:49.182Z,14.37
2018-06-24T01:01:48.649Z,14.37
2018-06-24T01:02:49.159Z,14.33
2018-06-24T01:03:49.161Z,14.28
2018-06-24T01:04:48.914Z,14.3
2018-06-24T01:05:49.160Z,14.23
2018-06-24T01:06:48.904Z,14.25
2018-06-24T01:07:48.904Z,14.25
2018-06-24T01:08:48.917Z,14.25
2018-06-24T01:09:48.919Z,14.22
2018-06-24T01:10:48.891Z,14.22
2018-06-24T01:11:49.143Z,14.28
2018-06-24T01:12:49.149Z,14.2
2018-06-24T01:13:48.889Z,14.28
2018-06-24T01:14:48.914Z,14.2
2018-06-24T01:15:48.892Z,14.23
2018-06-24T01:16:49.131Z,14.33
2018-06-24T01:17:49.139Z,14.35
2018-06-24T01:18:48.890Z,14.35
2018-06-24T01:19:48.887Z,14.36
2018-06-24T01:20:49.135Z,14.35
2018-06-24T01:21:48.866Z,14.36
2018-06-24T01:22:49.138Z,14.33
2018-06-24T01:23:48.868Z,14.37
2018-06-24T01:24:48.889Z,14.35
2018-06-24T01:25:48.862Z,14.32
2018-06-24T01:26:48.617Z,14.35
2018-06-24T01:27:49.107Z,14.37
2018-06-24T01:28:48.864Z,14.35
2018-06-24T01:29:48.854Z,14.3
2018-06-24T01:30:48.860Z,14.3
2018-06-24T01:31:49.120Z,14.35
2018-06-24T01:32:48.859Z,14.36
2018-06-24T01:33:49.117Z,14.36
2018-06-24T01:34:49.900Z,14.35
2018-06-24T01:35:48.864Z,14.37
2018-06-24T01:36:48.616Z,14.48
2018-06-24T01:37:48.848Z,14.44
2018-06-24T01:38:48.855Z,14.53
2018-06-24T01:39:48.856Z,14.53
2018-06-24T01:40:48.839Z,14.58
2018-06-24T01:41:48.839Z,14.59
2018-06-24T01:42:48.846Z,14.51
2018-06-24T01:43:48.844Z,14.53
2018-06-24T01:44:49.633Z,14.54
2018-06-24T01:45:49.085Z,14.51
2018-06-24T01:46:49.090Z,14.48
2018-06-24T01:47:48.844Z,14.5
2018-06-24T01:48:49.092Z,14.43
2018-06-24T01:49:48.830Z,14.4
2018-06-24T01:50:49.078Z,14.4
2018-06-24T01:51:49.079Z,14.36
2018-06-24T01:52:48.831Z,14.37
2018-06-24T01:53:48.822Z,14.33
2018-06-24T01:54:48.601Z,14.4
2018-06-24T01:55:48.823Z,14.28
2018-06-24T01:56:48.811Z,14.23
2018-06-24T01:57:48.810Z,14.22
2018-06-24T01:58:49.064Z,14.18
2018-06-24T01:59:48.812Z,14.17
2018-06-24T02:00:49.084Z,14.17
2018-06-24T02:01:49.066Z,14.07
2018-06-24T02:02:48.811Z,14.07
2018-06-24T02:03:49.063Z,14.1
2018-06-24T02:04:48.580Z,14.14
2018-06-24T02:05:49.061Z,14.11
2018-06-24T02:06:48.808Z,14.08
2018-06-24T02:07:49.049Z,14.05
2018-06-24T02:08:48.810Z,14.08
2018-06-24T02:09:48.798Z,13.96
2018-06-24T02:10:48.799Z,14.07
2018-06-24T02:11:49.058Z,14.08
2018-06-24T02:12:49.049Z,14.14
2018-06-24T02:13:48.788Z,13.97
2018-06-24T02:14:49.589Z,14.1
2018-06-24T02:15:49.049Z,14.03
2018-06-24T02:16:49.033Z,13.93
2018-06-24T02:17:49.042Z,13.99
2018-06-24T02:18:49.034Z,13.97
2018-06-24T02:19:49.030Z,13.93
2018-06-24T02:20:48.774Z,13.92
2018-06-24T02:21:48.773Z,13.95
2018-06-24T02:22:49.029Z,13.9
2018-06-24T02:23:48.770Z,13.83
2018-06-24T02:24:49.030Z,13.85
2018-06-24T02:25:49.062Z,13.87
2018-06-24T02:26:48.774Z,13.92
2018-06-24T02:27:48.774Z,13.85
2018-06-24T02:28:48.764Z,13.86
2018-06-24T02:29:48.778Z,13.85
2018-06-24T02:30:49.017Z,13.79
2018-06-24T02:31:49.021Z,13.79
2018-06-24T02:32:49.021Z,13.81
2018-06-24T02:33:48.755Z,13.72
2018-06-24T02:34:49.023Z,13.72
2018-06-24T02:35:49.021Z,13.7
2018-06-24T02:36:49.005Z,13.7
2018-06-24T02:37:48.992Z,13.71
2018-06-24T02:38:48.997Z,13.7
2018-06-24T02:39:48.744Z,13.67
2018-06-24T02:40:48.999Z,13.65
2018-06-24T02:41:49.011Z,13.67
2018-06-24T02:42:48.485Z,13.7
2018-06-24T02:43:48.487Z,13.71
2018-06-24T02:44:48.493Z,13.68
2018-06-24T02:45:48.735Z,13.68
2018-06-24T02:46:48.991Z,13.62
2018-06-24T02:47:48.989Z,13.68
2018-06-24T02:48:48.737Z,13.74
2018-06-24T02:49:48.982Z,13.7
2018-06-24T02:50:48.741Z,13.65
2018-06-24T02:51:48.725Z,13.71
2018-06-24T02:52:48.716Z,13.7
2018-06-24T02:53:48.466Z,13.65
2018-06-24T02:54:48.719Z,13.63
2018-06-24T02:55:48.987Z,13.65
2018-06-24T02:56:48.990Z,13.68
2018-06-24T02:57:48.988Z,13.71
2018-06-24T02:58:48.961Z,13.68
2018-06-24T02:59:48.711Z,13.75
2018-06-24T03:00:48.971Z,13.7
2018-06-24T03:01:48.718Z,13.83
2018-06-24T03:02:48.974Z,13.81
2018-06-24T03:03:48.965Z,13.83
2018-06-24T03:04:48.992Z,13.81
2018-06-24T03:05:48.697Z,13.85
2018-06-24T03:06:48.989Z,13.92
2018-06-24T03:07:48.691Z,13.86
2018-06-24T03:08:48.981Z,13.86
2018-06-24T03:09:48.690Z,13.83
2018-06-24T03:10:48.705Z,13.83
2018-06-24T03:11:48.945Z,13.78
2018-06-24T03:12:48.442Z,13.92
2018-06-24T03:13:48.947Z,13.87
2018-06-24T03:14:48.677Z,13.93
2018-06-24T03:15:48.948Z,13.92
2018-06-24T03:16:49.015Z,13.93
2018-06-24T03:17:48.957Z,13.96
2018-06-24T03:18:48.937Z,14
2018-06-24T03:19:48.936Z,14.05
2018-06-24T03:20:48.944Z,14.05
2018-06-24T03:21:48.665Z,14.05
2018-06-24T03:22:48.724Z,14.03
2018-06-24T03:23:48.416Z,14.07
2018-06-24T03:24:48.682Z,14.11
2018-06-24T03:25:48.667Z,14.12
2018-06-24T03:26:48.663Z,14.07
2018-06-24T03:27:48.709Z,14.05
2018-06-24T03:28:48.665Z,14.1
2018-06-24T03:29:48.663Z,14.12
2018-06-24T03:30:48.674Z,14.12
2018-06-24T03:31:48.907Z,14.11
2018-06-24T03:32:48.660Z,14.15
2018-06-24T03:33:48.392Z,14.12
2018-06-24T03:34:48.639Z,14.1
2018-06-24T03:35:48.901Z,14.17
2018-06-24T03:36:48.650Z,14.18
2018-06-24T03:37:48.636Z,14.18
2018-06-24T03:38:48.636Z,14.23
2018-06-24T03:39:48.900Z,14.22
2018-06-24T03:40:48.897Z,14.18
2018-06-24T03:41:48.906Z,14.26
2018-06-24T03:42:48.893Z,14.28
2018-06-24T03:43:48.890Z,14.35
2018-06-24T03:44:48.882Z,14.35
2018-06-24T03:45:48.651Z,14.32
2018-06-24T03:46:48.628Z,14.43
2018-06-24T03:47:48.655Z,14.41
2018-06-24T03:48:48.621Z,14.41
2018-06-24T03:49:48.620Z,14.45
2018-06-24T03:50:48.896Z,14.43
2018-06-24T03:51:48.370Z,14.51
2018-06-24T03:52:48.612Z,14.58
2018-06-24T03:53:48.614Z,14.55
2018-06-24T03:54:48.619Z,14.53
2018-06-24T03:55:48.608Z,14.65
2018-06-24T03:56:48.864Z,14.62
2018-06-24T03:57:48.626Z,14.77
2018-06-24T03:58:48.859Z,14.82
2018-06-24T03:59:48.859Z,14.85
2018-06-24T04:00:48.605Z,14.96
2018-06-24T04:01:48.612Z,14.91
2018-06-24T04:02:48.602Z,14.96
2018-06-24T04:03:48.598Z,15
2018-06-24T04:04:48.685Z,15.02
2018-06-24T04:05:48.349Z,15.19
2018-06-24T04:06:48.848Z,15.27
2018-06-24T04:07:48.342Z,15.35
2018-06-24T04:08:48.858Z,15.49
2018-06-24T04:09:48.853Z,15.64
2018-06-24T04:10:48.602Z,15.68
2018-06-24T04:11:48.594Z,15.9
2018-06-24T04:12:48.589Z,16.05
2018-06-24T04:13:48.858Z,16.28
2018-06-24T04:14:48.357Z,16.47
2018-06-24T04:15:49.010Z,16.56
2018-06-24T04:16:48.843Z,16.66
2018-06-24T04:17:48.591Z,16.76
2018-06-24T04:18:48.593Z,16.79
2018-06-24T04:19:48.843Z,16.81
2018-06-24T04:20:48.844Z,16.84
2018-06-24T04:21:48.606Z,16.86
2018-06-24T04:22:48.841Z,16.99
2018-06-24T04:23:48.851Z,17.09
2018-06-24T04:24:48.602Z,17.19
2018-06-24T04:25:48.777Z,17.34
2018-06-24T04:26:48.882Z,17.33
2018-06-24T04:27:48.357Z,17.39
2018-06-24T04:28:48.852Z,17.45
2018-06-24T04:29:48.861Z,17.59
2018-06-24T04:30:48.643Z,17.6
2018-06-24T04:31:48.347Z,17.63
2018-06-24T04:32:48.355Z,17.54
2018-06-24T04:33:48.619Z,17.59
2018-06-24T04:34:48.857Z,17.6
2018-06-24T04:35:48.864Z,17.51
2018-06-24T04:36:48.611Z,17.41
2018-06-24T04:37:48.868Z,17.33
2018-06-24T04:38:48.610Z,17.2
2018-06-24T04:39:48.608Z,17.11
2018-06-24T04:40:48.608Z,17.06
2018-06-24T04:41:48.869Z,16.93
2018-06-24T04:42:48.866Z,16.86
2018-06-24T04:43:48.613Z,16.81
2018-06-24T04:44:48.859Z,16.78
2018-06-24T04:45:49.949Z,16.79
2018-06-24T04:46:48.873Z,16.9
2018-06-24T04:47:48.887Z,16.83
2018-06-24T04:48:48.882Z,16.78
2018-06-24T04:49:48.872Z,16.78
2018-06-24T04:50:48.624Z,16.69
2018-06-24T04:51:48.857Z,16.65
2018-06-24T04:52:48.884Z,16.58
2018-06-24T04:53:48.884Z,16.6
2018-06-24T04:54:48.888Z,16.58
2018-06-24T04:55:48.626Z,16.68
2018-06-24T04:56:48.631Z,16.76
2018-06-24T04:57:48.630Z,16.86
2018-06-24T04:58:48.632Z,16.89
2018-06-24T04:59:48.632Z,16.76
2018-06-24T05:00:48.638Z,16.69
2018-06-24T05:01:48.902Z,16.65
2018-06-24T05:02:48.629Z,16.66
2018-06-24T05:03:48.636Z,16.71
2018-06-24T05:04:48.891Z,16.65
2018-06-24T05:05:48.632Z,16.56
2018-06-24T05:06:48.897Z,16.58
2018-06-24T05:07:48.908Z,16.64
2018-06-24T05:08:48.645Z,16.71
2018-06-24T05:09:48.903Z,16.71
2018-06-24T05:10:48.643Z,16.69
2018-06-24T05:11:48.892Z,16.53
2018-06-24T05:12:48.643Z,16.66
2018-06-24T05:13:48.888Z,16.69
2018-06-24T05:14:48.891Z,16.75
2018-06-24T05:15:49.695Z,16.75
2018-06-24T05:16:48.907Z,16.75
2018-06-24T05:17:48.908Z,16.83
2018-06-24T05:18:48.895Z,16.86
2018-06-24T05:19:48.657Z,16.89
2018-06-24T05:20:48.663Z,16.83
2018-06-24T05:21:48.645Z,16.94
2018-06-24T05:22:48.898Z,16.81
2018-06-24T05:23:48.646Z,16.86
2018-06-24T05:24:48.905Z,16.9
2018-06-24T05:25:48.907Z,16.93
2018-06-24T05:26:48.899Z,16.81
2018-06-24T05:27:48.655Z,16.86
2018-06-24T05:28:48.652Z,16.91
2018-06-24T05:29:48.660Z,17.02
2018-06-24T05:30:48.648Z,17.01
2018-06-24T05:31:48.908Z,17.02
2018-06-24T05:32:48.653Z,17.15
2018-06-24T05:33:48.650Z,17.3
2018-06-24T05:34:48.908Z,17.44
2018-06-24T05:35:48.653Z,17.6
2018-06-24T05:36:48.654Z,17.74
2018-06-24T05:37:49.054Z,17.74
2018-06-24T05:38:48.945Z,17.71
2018-06-24T05:39:48.411Z,17.68
2018-06-24T05:40:48.908Z,17.7
2018-06-24T05:41:48.699Z,17.63
2018-06-24T05:42:48.671Z,17.56
2018-06-24T05:43:48.927Z,17.56
2018-06-24T05:44:48.917Z,17.59
2018-06-24T05:45:48.922Z,17.56
2018-06-24T05:46:48.923Z,17.6
2018-06-24T05:47:48.926Z,17.56
2018-06-24T05:48:49.115Z,17.51
2018-06-24T05:49:48.927Z,17.52
2018-06-24T05:50:48.685Z,17.57
2018-06-24T05:51:48.672Z,17.56
2018-06-24T05:52:48.955Z,17.56
2018-06-24T05:53:48.948Z,17.72
2018-06-24T05:54:48.695Z,17.7
2018-06-24T05:55:48.698Z,17.71
2018-06-24T05:56:48.434Z,17.89
2018-06-24T05:57:48.951Z,18.15
2018-06-24T05:58:48.681Z,18.26
2018-06-24T05:59:48.940Z,18.37
2018-06-24T06:00:48.689Z,18.23
2018-06-24T06:01:48.966Z,18.26
2018-06-24T06:02:48.801Z,18.22
2018-06-24T06:03:48.953Z,18.33
2018-06-24T06:04:48.959Z,18.35
2018-06-24T06:05:48.469Z,18.41
2018-06-24T06:06:48.714Z,18.63
2018-06-24T06:07:48.702Z,18.65
2018-06-24T06:08:48.960Z,18.45
2018-06-24T06:09:48.705Z,18.6
2018-06-24T06:10:48.966Z,18.58
2018-06-24T06:11:49.018Z,18.49
2018-06-24T06:12:48.971Z,18.44
2018-06-24T06:13:48.718Z,18.68
2018-06-24T06:23:46.898Z,21.29
2018-06-24T06:24:47.408Z,21.46
2018-06-24T06:25:47.396Z,21.77
2018-06-24T06:26:47.151Z,21.99
2018-06-24T06:27:47.146Z,22.1
2018-06-24T06:28:47.145Z,22.3
2018-06-24T06:29:47.427Z,22.68
2018-06-24T06:30:47.426Z,22.83
2018-06-24T06:31:47.160Z,23.2
2018-06-24T06:32:47.167Z,23.37
2018-06-24T06:33:47.420Z,23.31
2018-06-24T06:34:46.922Z,23.36
2018-06-24T06:35:47.432Z,23.43
2018-06-24T06:36:47.249Z,23.34
2018-06-24T06:37:47.185Z,23.56
2018-06-24T06:38:47.190Z,23.43
2018-06-24T06:39:47.472Z,23.17
2018-06-24T06:40:47.471Z,23.17
2018-06-24T06:41:47.196Z,23.27
2018-06-24T06:42:47.208Z,23.47
2018-06-24T06:43:47.487Z,23.65
2018-06-24T06:44:47.495Z,23.74
2018-06-24T06:45:47.623Z,23.86
2018-06-24T06:46:46.983Z,24.21
2018-06-24T06:47:47.234Z,24.32
2018-06-24T06:48:47.513Z,24.24
2018-06-24T06:49:47.512Z,23.81
2018-06-24T06:50:47.268Z,23.68
2018-06-24T06:51:47.251Z,23.47
2018-06-24T06:52:47.258Z,23.31
2018-06-24T06:53:47.283Z,23.37
2018-06-24T06:54:47.019Z,23.54
2018-06-24T06:55:47.288Z,23.63
2018-06-24T06:56:47.537Z,23.86
2018-06-24T06:57:47.740Z,24.1
2018-06-24T06:58:47.306Z,24.13
2018-06-24T06:59:47.578Z,24.03
2018-06-24T07:00:47.314Z,23.95
2018-06-24T07:01:47.591Z,23.93
2018-06-24T07:02:47.588Z,23.54
2018-06-24T07:03:47.325Z,23.39
2018-06-24T07:04:47.340Z,23.13
2018-06-24T07:05:47.386Z,22.93
2018-06-24T07:06:47.345Z,22.8
2018-06-24T07:07:47.344Z,22.45
2018-06-24T07:08:47.634Z,22.04
2018-06-24T07:09:47.096Z,21.66
2018-06-24T07:10:47.103Z,21.36
2018-06-24T07:11:47.359Z,21.22
2018-06-24T07:12:47.633Z,21.21
2018-06-24T07:13:47.112Z,21.07
2018-06-24T07:14:47.114Z,20.78
2018-06-24T07:15:47.631Z,20.39
2018-06-24T07:16:47.389Z,20.22
2018-06-24T07:17:47.646Z,20.28
2018-06-24T07:18:47.400Z,20.25
2018-06-24T07:19:47.640Z,20.39
2018-06-24T07:20:47.661Z,20.36
2018-06-24T07:21:47.664Z,20.36
2018-06-24T07:22:47.170Z,20.47
2018-06-24T07:23:48.726Z,20.31
2018-06-24T07:24:47.169Z,20.22
2018-06-24T07:25:47.415Z,20.14
2018-06-24T07:26:47.689Z,20.25
2018-06-24T07:27:47.852Z,20.34
2018-06-24T07:28:47.436Z,20.7
2018-06-24T07:29:47.693Z,20.85
2018-06-24T07:30:47.433Z,21.06
2018-06-24T07:31:47.442Z,21.27
2018-06-24T07:32:47.696Z,21.35
2018-06-24T07:33:48.503Z,21.58
2018-06-24T07:34:47.458Z,21.67
2018-06-24T07:35:47.465Z,21.57
2018-06-24T07:36:47.710Z,21.58
2018-06-24T07:37:47.490Z,21.55
2018-06-24T07:38:47.244Z,21.35
2018-06-24T07:39:47.720Z,21.07
2018-06-24T07:40:47.500Z,20.7
2018-06-24T07:41:47.726Z,20.44
2018-06-24T07:42:47.488Z,20.29
2018-06-24T07:43:47.740Z,20.09
2018-06-24T07:44:47.491Z,20.03
2018-06-24T07:45:47.503Z,20.02
2018-06-24T07:46:47.765Z,20.07
2018-06-24T07:47:47.755Z,20.1
2018-06-24T07:48:47.499Z,20.04
2018-06-24T07:49:47.779Z,20.02
2018-06-24T07:50:47.518Z,20.02
2018-06-24T07:51:47.523Z,20
2018-06-24T07:52:47.764Z,20
2018-06-24T07:53:48.830Z,20.03
2018-06-24T07:54:47.542Z,20.04
2018-06-24T07:55:47.778Z,20.02
2018-06-24T07:56:47.781Z,20.06
2018-06-24T07:57:47.792Z,19.91
2018-06-24T07:58:47.804Z,19.84
2018-06-24T07:59:47.290Z,19.91
2018-06-24T08:00:47.551Z,20.02
2018-06-24T08:01:47.544Z,20.24
2018-06-24T08:02:47.793Z,20.36
2018-06-24T08:03:47.801Z,20.5
2018-06-24T08:04:47.814Z,20.77
2018-06-24T08:05:47.821Z,20.99
2018-06-24T08:06:47.823Z,21.18
2018-06-24T08:07:47.836Z,21.32
2018-06-24T08:08:47.577Z,21.57
2018-06-24T08:09:47.576Z,21.89
2018-06-24T08:10:47.582Z,22.28
2018-06-24T08:11:47.830Z,22.69
2018-06-24T08:12:47.577Z,22.81
2018-06-24T08:13:47.329Z,22.72
2018-06-24T08:14:47.586Z,22.51
2018-06-24T08:15:47.583Z,22.3
2018-06-24T08:16:47.610Z,22.32
2018-06-24T08:17:47.366Z,22.45
2018-06-24T08:18:47.611Z,22.43
2018-06-24T08:19:47.616Z,22.08
2018-06-24T08:20:47.362Z,21.83
2018-06-24T08:21:47.626Z,21.62
2018-06-24T08:22:47.715Z,21.46
2018-06-24T08:23:47.625Z,21.36
2018-06-24T08:24:47.376Z,21.07
2018-06-24T08:25:47.881Z,21.07
2018-06-24T08:26:47.908Z,21.22
2018-06-24T08:27:47.931Z,21.24
2018-06-24T08:28:47.918Z,21.07
2018-06-24T08:29:47.400Z,20.74
2018-06-24T08:30:47.649Z,20.52
2018-06-24T08:31:48.273Z,20.48
2018-06-24T08:32:47.654Z,20.5
2018-06-24T08:33:47.434Z,20.65
2018-06-24T08:34:47.916Z,20.75
2018-06-24T08:35:47.926Z,20.88
2018-06-24T08:36:47.930Z,21.09
2018-06-24T08:37:47.942Z,21.6
2018-06-24T08:38:47.432Z,22.14
2018-06-24T08:39:47.944Z,22.45
2018-06-24T08:40:47.951Z,22.66
2018-06-24T08:41:47.940Z,22.87
2018-06-24T08:42:47.941Z,22.81
2018-06-24T08:43:47.448Z,22.9
2018-06-24T08:44:48.763Z,22.62
2018-06-24T08:45:47.709Z,22.57
2018-06-24T08:46:47.971Z,22.5
2018-06-24T08:47:47.723Z,22.22
2018-06-24T08:48:47.980Z,21.8
2018-06-24T08:49:47.721Z,21.88
2018-06-24T08:50:47.996Z,21.61
2018-06-24T08:51:47.482Z,21.51
2018-06-24T08:52:47.742Z,21.48
2018-06-24T08:53:47.765Z,21.3
2018-06-24T08:54:48.002Z,21.12
2018-06-24T08:55:47.765Z,20.99
2018-06-24T08:56:47.781Z,20.99
2018-06-24T08:57:48.030Z,21.22
2018-06-24T08:58:48.026Z,21.35
2018-06-24T08:59:47.780Z,21.39
2018-06-24T09:00:47.947Z,21.4
2018-06-24T09:01:47.784Z,21.43
2018-06-24T09:02:48.036Z,21.55
2018-06-24T09:03:47.540Z,21.64
2018-06-24T09:04:48.043Z,21.75
2018-06-24T09:05:47.580Z,21.7
2018-06-24T09:06:47.571Z,21.69
2018-06-24T09:07:47.798Z,21.69
2018-06-24T09:08:47.812Z,21.72
2018-06-24T09:09:48.069Z,21.72
2018-06-24T09:10:47.828Z,21.73
2018-06-24T09:11:48.094Z,21.54
2018-06-24T09:12:47.584Z,21.42
2018-06-24T09:13:47.846Z,21.48
2018-06-24T09:14:47.880Z,21.67
2018-06-24T09:15:47.914Z,21.99
2018-06-24T09:16:48.110Z,22.2
2018-06-24T09:17:47.846Z,22.22
2018-06-24T09:18:47.850Z,22.22
2018-06-24T09:19:47.859Z,22.3
2018-06-24T09:20:47.862Z,22.25
2018-06-24T09:21:47.881Z,22.41
2018-06-24T09:22:47.617Z,22.5
2018-06-24T09:23:48.137Z,22.38
2018-06-24T09:24:48.137Z,22.11
2018-06-24T09:25:48.158Z,22.02
2018-06-24T09:26:48.141Z,21.96
2018-06-24T09:27:48.246Z,21.88
2018-06-24T09:28:47.906Z,21.95
2018-06-24T09:29:47.913Z,22.18
2018-06-24T09:30:48.005Z,22.3
2018-06-24T09:31:47.919Z,22.47
2018-06-24T09:32:47.668Z,22.36
2018-06-24T09:33:47.938Z,22.38
2018-06-24T09:34:48.236Z,22.18
2018-06-24T09:35:48.196Z,22.17
2018-06-24T09:36:47.675Z,22.1
2018-06-24T09:37:47.941Z,22.13
2018-06-24T09:38:47.951Z,22.22
2018-06-24T09:39:48.205Z,22.33
2018-06-24T09:40:48.208Z,22.22
2018-06-24T09:41:48.204Z,22.15
2018-06-24T09:42:47.965Z,22.14
2018-06-24T09:43:47.708Z,22.17
2018-06-24T09:44:47.978Z,22.14
2018-06-24T09:45:48.221Z,22.07
2018-06-24T09:46:47.976Z,21.95
2018-06-24T09:47:48.231Z,21.88
2018-06-24T09:48:47.977Z,21.88
2018-06-24T09:49:47.982Z,21.82
2018-06-24T09:50:48.000Z,21.67
2018-06-24T09:51:48.247Z,21.6
2018-06-24T09:52:48.118Z,21.66
2018-06-24T09:53:48.277Z,21.91
2018-06-24T09:54:48.025Z,22.15
2018-06-24T09:55:48.061Z,22.45
2018-06-24T09:56:48.027Z,22.68
2018-06-24T09:57:48.038Z,22.6
2018-06-24T09:58:48.031Z,22.87
2018-06-24T09:59:48.042Z,22.85
2018-06-24T10:00:48.293Z,22.68
2018-06-24T10:01:47.834Z,22.36
2018-06-24T10:02:48.034Z,22.18
2018-06-24T10:03:48.060Z,22
2018-06-24T10:04:48.057Z,22
2018-06-24T10:05:48.301Z,21.89
2018-06-24T10:06:48.323Z,21.88
2018-06-24T10:07:48.076Z,21.99
2018-06-24T10:08:48.088Z,22
2018-06-24T10:09:49.119Z,22.02
2018-06-24T10:10:47.815Z,21.91
2018-06-24T10:11:48.080Z,21.88
2018-06-24T10:12:48.086Z,21.92
2018-06-24T10:13:47.833Z,22.1
2018-06-24T10:14:48.121Z,22.14
2018-06-24T10:15:47.837Z,22.18
2018-06-24T10:16:47.849Z,22.13
2018-06-24T10:17:48.106Z,22.15
2018-06-24T10:18:48.367Z,22.18
2018-06-24T10:19:48.369Z,22.29
2018-06-24T10:20:48.134Z,22.48
2018-06-24T10:21:48.117Z,22.65
2018-06-24T10:53:05.417Z,21.88
2018-06-24T10:54:05.326Z,21.89
2018-06-24T10:55:05.060Z,21.79
2018-06-24T10:56:05.025Z,21.91
2018-06-24T10:57:05.004Z,22
2018-06-24T10:58:05.004Z,22.22
2018-06-24T10:59:05.014Z,22.39
2018-06-24T11:00:04.759Z,22.53
2018-06-24T11:01:05.268Z,22.68
2018-06-24T11:02:05.540Z,22.85
2018-06-24T11:03:05.032Z,23.1
2018-06-24T11:04:05.272Z,22.98
2018-06-24T11:05:05.036Z,22.84
2018-06-24T11:06:05.283Z,22.69
2018-06-24T11:07:05.035Z,22.81
2018-06-24T11:08:04.773Z,22.91
2018-06-24T11:09:05.292Z,22.94
2018-06-24T11:10:04.784Z,22.66
2018-06-24T11:11:04.799Z,22.45
2018-06-24T11:12:04.804Z,22.51
2018-06-24T11:13:05.055Z,22.29
2018-06-24T11:14:05.316Z,22.29
2018-06-24T11:15:05.076Z,22.32
2018-06-24T11:16:05.088Z,22.45
2018-06-24T11:17:05.323Z,22.44
2018-06-24T11:18:05.070Z,22.28
2018-06-24T11:19:04.814Z,22.26
2018-06-24T11:20:04.833Z,22.04
2018-06-24T11:21:05.347Z,22.02
2018-06-24T11:22:04.836Z,22.04
2018-06-24T11:23:05.351Z,21.82
2018-06-24T11:24:05.368Z,21.7
2018-06-24T11:25:05.096Z,21.55
2018-06-24T11:26:05.110Z,21.51
2018-06-24T11:27:05.109Z,21.54
2018-06-24T11:28:04.866Z,21.45
2018-06-24T11:29:05.119Z,21.48
2018-06-24T11:30:05.139Z,21.46
2018-06-24T11:31:05.560Z,21.45
2018-06-24T11:32:05.140Z,21.29
2018-06-24T11:33:05.138Z,21.29
2018-06-24T11:34:05.145Z,21.09
2018-06-24T11:35:04.887Z,20.99
2018-06-24T11:36:04.879Z,20.99
2018-06-24T11:37:05.568Z,20.96
2018-06-24T11:38:05.146Z,21.07
2018-06-24T11:39:05.137Z,21.22
2018-06-24T11:40:05.400Z,21.27
2018-06-24T11:41:05.426Z,21.46
2018-06-24T11:42:05.406Z,21.6
2018-06-24T11:43:05.168Z,21.61
2018-06-24T11:44:04.899Z,21.6
2018-06-24T11:45:05.417Z,21.5
2018-06-24T11:46:05.165Z,21.5
2018-06-24T11:47:05.175Z,21.5
2018-06-24T11:48:05.188Z,21.51
2018-06-24T11:49:05.441Z,21.67
2018-06-24T11:50:04.931Z,21.8
2018-06-24T11:51:05.191Z,21.92
2018-06-24T11:52:05.441Z,21.77
2018-06-24T11:53:07.642Z,21.61
2018-06-24T11:54:05.450Z,21.39
2018-06-24T11:55:05.456Z,21.25
2018-06-24T11:56:05.483Z,21.18
2018-06-24T11:57:05.386Z,21.3
2018-06-24T11:58:05.468Z,21.29
2018-06-24T11:59:05.217Z,21.43
2018-06-24T12:00:05.232Z,21.43
2018-06-24T12:01:05.214Z,21.51
2018-06-24T12:02:05.664Z,21.72
2018-06-24T12:03:05.489Z,21.54
2018-06-24T12:04:05.319Z,21.46
2018-06-24T12:05:05.496Z,21.42
2018-06-24T12:06:05.479Z,21.35
2018-06-24T12:07:05.503Z,21.37
2018-06-24T12:08:05.490Z,21.42
2018-06-24T12:09:05.011Z,21.45
2018-06-24T12:10:05.242Z,21.57
2018-06-24T12:11:05.242Z,21.45
2018-06-24T12:12:05.519Z,21.48
2018-06-24T12:13:05.260Z,21.61
2018-06-24T12:14:05.279Z,21.46
2018-06-24T12:15:05.259Z,21.39
2018-06-24T12:16:05.543Z,21.48
2018-06-24T12:17:05.520Z,21.55
2018-06-24T12:18:05.397Z,21.66
2018-06-24T12:19:05.282Z,21.89
2018-06-24T12:20:05.270Z,22.14
2018-06-24T12:21:05.038Z,22.08
2018-06-24T12:22:05.548Z,21.98
2018-06-24T12:23:05.554Z,21.96
2018-06-24T12:24:05.053Z,21.93
2018-06-24T12:25:05.068Z,21.66
2018-06-24T12:26:05.379Z,21.85
2018-06-24T12:27:05.546Z,21.82
2018-06-24T12:28:05.566Z,21.72
2018-06-24T12:29:05.569Z,21.66
2018-06-24T12:30:05.579Z,21.7
2018-06-24T12:31:05.333Z,21.61
2018-06-24T12:32:05.322Z,21.54
2018-06-24T12:33:05.064Z,21.5
2018-06-24T12:34:05.324Z,21.6
2018-06-24T12:35:05.582Z,21.6
2018-06-24T12:36:05.337Z,21.82
2018-06-24T12:37:05.593Z,21.99
2018-06-24T12:38:05.336Z,22
2018-06-24T12:39:05.083Z,22.04
2018-06-24T12:40:05.351Z,21.92
2018-06-24T12:41:05.091Z,21.83
2018-06-24T12:42:05.103Z,21.67
2018-06-24T12:43:05.751Z,21.93
2018-06-24T12:44:05.616Z,21.89
2018-06-24T12:45:05.109Z,21.96
2018-06-24T12:46:05.618Z,22.14
2018-06-24T12:47:05.129Z,22.2
2018-06-24T12:48:05.384Z,22.23
2018-06-24T12:49:05.117Z,22.28
2018-06-24T12:50:05.389Z,22.33
2018-06-24T12:51:05.634Z,22.47
2018-06-24T12:52:05.387Z,22.44
2018-06-24T12:53:06.446Z,22.62
2018-06-24T12:54:05.394Z,22.8
2018-06-24T12:55:05.658Z,22.84
2018-06-24T12:56:05.154Z,22.84
2018-06-24T12:57:05.428Z,22.8
2018-06-24T12:58:05.430Z,22.55
2018-06-24T12:59:06.384Z,22.59
2018-06-24T13:00:06.824Z,22.55
2018-06-24T13:01:05.464Z,22.47
2018-06-24T13:02:05.719Z,22.33
2018-06-24T13:03:05.432Z,22.32
2018-06-24T13:04:05.172Z,22.23
2018-06-24T13:05:05.206Z,22.23
2018-06-24T13:06:05.225Z,22.18
2018-06-24T13:07:05.487Z,22.3
2018-06-24T13:08:05.463Z,22.18
2018-06-24T13:09:05.709Z,22.02
2018-06-24T13:10:05.462Z,21.88
2018-06-24T13:11:05.215Z,21.99
2018-06-24T13:12:05.462Z,21.99
2018-06-24T13:13:05.469Z,21.85
2018-06-24T13:14:05.292Z,21.66
2018-06-24T13:15:05.488Z,21.55
2018-06-24T13:16:05.224Z,21.55
2018-06-24T13:17:05.475Z,21.62
2018-06-24T13:18:05.495Z,21.76
2018-06-24T13:19:05.485Z,21.95
2018-06-24T13:20:05.509Z,22.07
2018-06-24T13:21:05.758Z,22.26
2018-06-24T13:22:05.758Z,22.2
2018-06-24T13:23:06.563Z,22.2
2018-06-24T13:24:05.772Z,22
2018-06-24T13:25:05.807Z,21.91
2018-06-24T13:26:05.521Z,21.83
2018-06-24T13:27:05.526Z,21.8
2018-06-24T13:28:05.787Z,21.73
2018-06-24T13:29:05.772Z,21.62
2018-06-24T13:30:05.525Z,21.64
2018-06-24T13:31:05.547Z,21.58
2018-06-24T13:32:05.836Z,21.7
2018-06-24T13:33:05.798Z,21.89
2018-06-24T13:34:05.538Z,21.96
2018-06-24T13:35:05.536Z,21.89
2018-06-24T13:36:05.540Z,21.69